createdAt,value
2022-11-15T00:05:14.675Z,79.97
2022-11-15T00:10:36.266Z,80.38
2022-11-15T00:16:00.949Z,80.10
2022-11-15T00:21:22.264Z,80.17
2022-11-15T00:26:43.777Z,80.33
2022-11-15T00:32:06.427Z,80.25
2022-11-15T00:37:27.907Z,80.04
2022-11-15T00:42:49.019Z,80.32
2022-11-15T00:48:12.143Z,80.25
2022-11-15T00:53:33.987Z,80.47
2022-11-15T00:58:55.561Z,80.35
2022-11-15T01:04:18.574Z,80.60
2022-11-15T01:09:39.670Z,80.23
2022-11-15T01:15:01.168Z,80.17
2022-11-15T01:20:24.008Z,80.02
2022-11-15T01:25:45.167Z,79.88
2022-11-15T01:31:07.857Z,79.44
2022-11-15T01:36:30.813Z,79.67
2022-11-15T01:41:51.902Z,79.12
2022-11-15T01:47:16.215Z,79.27
2022-11-15T01:52:40.213Z,78.70
2022-11-15T01:58:04.353Z,78.57
2022-11-15T02:03:31.427Z,78.83
2022-11-15T02:08:55.257Z,78.64
2022-11-15T02:14:17.587Z,79.11
2022-11-15T02:20:07.610Z,79.29
2022-11-15T02:25:40.580Z,79.23
2022-11-15T02:31:06.851Z,79.03
2022-11-15T02:36:36.330Z,79.46
2022-11-15T02:42:00.624Z,79.00
2022-11-15T02:47:23.953Z,79.01
2022-11-15T02:52:47.673Z,79.12
2022-11-15T02:58:25.528Z,78.74
2022-11-15T03:03:59.142Z,79.25
2022-11-15T03:09:28.867Z,78.85
2022-11-15T03:14:53.697Z,79.29
2022-11-15T03:20:18.023Z,78.99
2022-11-15T03:25:43.516Z,79.18
2022-11-15T03:31:25.601Z,79.59
2022-11-15T03:36:49.369Z,79.62
2022-11-15T03:42:18.597Z,79.56
2022-11-15T03:47:42.708Z,79.38
2022-11-15T03:53:05.580Z,79.62
2022-11-15T03:58:26.700Z,79.63
2022-11-15T04:03:48.039Z,79.68
2022-11-15T04:09:10.899Z,79.68
2022-11-15T04:14:32.391Z,79.73
2022-11-15T04:20:11.525Z,79.53
2022-11-15T04:25:34.560Z,79.50
2022-11-15T04:30:55.740Z,79.89
2022-11-15T04:36:34.783Z,79.87
2022-11-15T04:41:57.655Z,79.95
2022-11-15T04:47:19.819Z,79.82
2022-11-15T04:52:41.806Z,79.95
2022-11-15T04:58:04.547Z,79.61
2022-11-15T05:03:43.512Z,79.88
2022-11-15T05:09:05.426Z,79.65
2022-11-15T05:14:28.035Z,79.61
2022-11-15T05:19:49.453Z,79.79
2022-11-15T05:25:10.891Z,79.93
2022-11-15T05:30:33.555Z,79.99
2022-11-15T05:35:59.897Z,79.95
2022-11-15T05:41:23.580Z,80.28
2022-11-15T05:46:46.514Z,80.16
2022-11-15T05:52:10.046Z,80.13
2022-11-15T05:57:31.291Z,80.43
2022-11-15T06:02:54.155Z,80.48
2022-11-15T06:08:15.559Z,81.00
2022-11-15T06:13:37.044Z,80.62
2022-11-15T06:18:59.848Z,81.10
2022-11-15T06:24:21.238Z,81.08
2022-11-15T06:29:42.602Z,80.98
2022-11-15T06:35:06.745Z,81.26
2022-11-15T06:40:28.321Z,81.31
2022-11-15T06:45:49.453Z,81.80
2022-11-15T06:51:12.206Z,81.50
2022-11-15T06:56:33.808Z,81.70
2022-11-15T07:01:55.137Z,81.61
2022-11-15T07:07:17.967Z,81.12
2022-11-15T07:12:39.263Z,81.08
2022-11-15T07:18:02.666Z,81.37
2022-11-15T07:23:25.300Z,80.58
2022-11-15T07:28:46.725Z,80.67
2022-11-15T07:34:08.170Z,79.94
2022-11-15T07:39:31.014Z,79.98
2022-11-15T07:44:52.368Z,79.61
2022-11-15T07:50:14.030Z,78.76
2022-11-15T07:55:36.859Z,79.14
2022-11-15T08:00:58.306Z,79.02
2022-11-15T08:06:19.648Z,79.03
2022-11-15T08:11:42.413Z,78.91
2022-11-15T08:17:04.027Z,78.68
2022-11-15T08:22:25.382Z,78.37
2022-11-15T08:27:48.422Z,77.92
2022-11-15T08:33:12.828Z,77.56
2022-11-15T08:38:34.307Z,77.44
2022-11-15T08:43:57.367Z,76.91
2022-11-15T08:49:18.874Z,76.83
2022-11-15T08:54:40.175Z,76.89
2022-11-15T09:00:03.110Z,76.38
2022-11-15T09:05:24.332Z,76.10
2022-11-15T09:10:45.754Z,76.06
2022-11-15T09:16:08.801Z,75.91
2022-11-15T09:21:30.908Z,75.64
2022-11-15T09:26:52.577Z,75.39
2022-11-15T09:32:15.398Z,74.98
2022-11-15T09:37:36.844Z,74.62
2022-11-15T09:43:10.111Z,74.41
2022-11-15T09:48:48.296Z,74.14
2022-11-15T09:59:56.380Z,73.26
2022-11-15T10:05:01.784Z,72.92
2022-11-15T10:10:10.388Z,72.26
2022-11-15T10:15:15.578Z,72.20
2022-11-15T10:20:22.971Z,72.07
2022-11-15T10:25:27.260Z,71.74
2022-11-15T10:30:40.238Z,71.17
2022-11-15T10:35:44.448Z,71.02
2022-11-15T10:40:47.141Z,71.02
2022-11-15T10:45:50.884Z,70.93
2022-11-15T10:50:56.198Z,70.53
2022-11-15T10:56:01.897Z,69.91
2022-11-15T11:01:13.021Z,70.60
2022-11-15T11:06:19.194Z,70.08
2022-11-15T11:11:22.089Z,69.50
2022-11-15T11:16:43.981Z,68.72
2022-11-15T11:21:53.451Z,67.53
2022-11-15T11:27:07.892Z,65.92
2022-11-15T11:32:23.719Z,65.17
2022-11-15T11:37:33.048Z,65.20
2022-11-15T11:42:40.886Z,65.18
2022-11-15T11:47:49.097Z,65.34
2022-11-15T11:53:03.647Z,65.31
2022-11-15T11:58:13.575Z,64.56
2022-11-15T12:03:23.899Z,63.93
2022-11-15T12:08:35.582Z,63.09
2022-11-15T12:13:38.824Z,62.48
2022-11-15T12:18:51.132Z,62.50
2022-11-15T12:23:58.676Z,62.23
2022-11-15T12:29:08.617Z,62.02
2022-11-15T12:34:30.875Z,62.06
2022-11-15T12:40:07.163Z,62.77
2022-11-15T12:45:26.670Z,63.61
2022-11-15T12:50:58.922Z,63.90
2022-11-15T12:56:23.726Z,63.94
2022-11-15T13:01:58.132Z,63.23
2022-11-15T13:07:04.038Z,63.46
2022-11-15T13:12:13.594Z,63.49
2022-11-15T13:17:37.209Z,63.78
2022-11-15T13:22:52.821Z,64.23
2022-11-15T13:28:00.440Z,64.97
2022-11-15T13:33:10.958Z,65.76
2022-11-15T13:38:22.519Z,66.14
2022-11-15T13:43:33.236Z,66.60
2022-11-15T13:48:36.374Z,66.81
2022-11-15T13:53:40.795Z,67.24
2022-11-15T13:58:44.910Z,67.52
2022-11-15T14:03:56.729Z,67.37
2022-11-15T14:09:03.695Z,67.49
2022-11-15T14:14:16.371Z,67.43
2022-11-15T14:19:38.567Z,67.85
2022-11-15T14:24:42.023Z,67.99
2022-11-15T14:29:46.260Z,68.32
2022-11-15T14:34:49.491Z,68.45
2022-11-15T14:39:52.685Z,68.85
2022-11-15T14:44:56.744Z,69.25
2022-11-15T14:49:59.495Z,69.22
2022-11-15T14:55:03.246Z,69.57
2022-11-15T15:00:10.884Z,69.92
2022-11-15T15:05:18.596Z,70.32
2022-11-15T15:15:46.256Z,71.16
2022-11-15T15:20:52.433Z,71.76
2022-11-15T15:25:55.157Z,72.11
2022-11-15T15:31:00.284Z,72.35
2022-11-15T15:36:03.151Z,72.74
2022-11-15T15:41:06.086Z,73.11
2022-11-15T15:46:12.197Z,73.30
2022-11-15T15:51:20.105Z,73.64
2022-11-15T15:56:23.667Z,73.97
2022-11-15T16:01:27.764Z,74.09
2022-11-15T16:06:37.284Z,74.40
2022-11-15T16:11:40.073Z,74.72
2022-11-15T16:16:44.159Z,74.75
2022-11-15T16:21:47.045Z,74.83
2022-11-15T16:26:50.555Z,74.92
2022-11-15T16:31:54.621Z,74.98
2022-11-15T16:36:57.552Z,74.91
2022-11-15T16:42:00.781Z,75.22
2022-11-15T16:47:05.083Z,75.35
2022-11-15T16:52:07.952Z,75.17
2022-11-15T16:57:12.458Z,75.27
2022-11-15T17:02:17.249Z,75.43
2022-11-15T17:07:20.034Z,75.75
2022-11-15T17:12:22.881Z,76.15
2022-11-15T17:17:27.474Z,76.41
2022-11-15T17:22:30.386Z,76.16
2022-11-15T17:27:33.380Z,76.33
2022-11-15T17:32:38.573Z,76.57
2022-11-15T17:37:41.331Z,76.79
2022-11-15T17:42:44.715Z,76.94
2022-11-15T17:47:48.861Z,76.97
2022-11-15T17:52:51.796Z,77.15
2022-11-15T17:57:54.555Z,77.06
2022-11-15T18:02:59.301Z,77.29
2022-11-15T18:08:02.069Z,77.20
2022-11-15T18:13:05.260Z,77.50
2022-11-15T18:18:09.353Z,77.27
2022-11-15T18:23:12.393Z,77.62
2022-11-15T18:28:15.327Z,77.71
2022-11-15T18:33:19.722Z,77.81
2022-11-15T18:38:22.499Z,77.59
2022-11-15T18:43:25.269Z,77.43
2022-11-15T18:48:31.862Z,77.48
2022-11-15T18:53:35.942Z,77.56
2022-11-15T18:58:40.871Z,77.31
2022-11-15T19:03:46.460Z,77.44
2022-11-15T19:08:50.744Z,78.02
2022-11-15T19:13:54.546Z,78.29
2022-11-15T19:18:59.765Z,78.26
2022-11-15T19:24:03.121Z,78.08
2022-11-15T19:29:07.095Z,77.75
2022-11-15T19:34:13.064Z,78.39
2022-11-15T19:39:18.414Z,78.81
2022-11-15T19:44:22.696Z,78.74
2022-11-15T19:49:27.547Z,78.51
2022-11-15T19:54:30.336Z,78.33
2022-11-15T19:59:33.036Z,78.28
2022-11-15T20:04:37.149Z,78.15
2022-11-15T20:09:39.865Z,78.06
2022-11-15T20:14:42.700Z,77.49
2022-11-15T20:19:46.899Z,78.25
2022-11-15T20:24:49.841Z,78.66
2022-11-15T20:29:54.490Z,78.69
2022-11-15T20:34:58.570Z,78.83
2022-11-15T20:40:01.413Z,78.71
2022-11-15T20:45:04.408Z,79.08
2022-11-15T20:50:35.495Z,79.21
2022-11-15T20:55:32.399Z,79.28
2022-11-15T21:00:36.774Z,79.30
2022-11-15T21:05:42.000Z,79.33
2022-11-15T21:11:16.559Z,79.75
2022-11-15T21:16:19.260Z,80.25
2022-11-15T21:21:23.425Z,80.10
2022-11-15T21:26:26.162Z,79.84
2022-11-15T21:31:29.041Z,79.89
2022-11-15T21:36:33.163Z,79.77
2022-11-15T21:41:36.332Z,79.81
2022-11-15T21:46:39.195Z,79.57
2022-11-15T21:51:43.351Z,79.23
2022-11-15T21:56:46.359Z,78.91
2022-11-15T22:02:06.741Z,78.85
2022-11-15T22:07:10.853Z,79.12
2022-11-15T22:12:13.920Z,78.96
2022-11-15T22:17:16.873Z,79.70
2022-11-15T22:22:21.095Z,79.65
2022-11-15T22:27:24.099Z,79.98
2022-11-15T22:32:27.164Z,80.02
2022-11-15T22:37:31.401Z,79.73
2022-11-15T22:42:34.267Z,79.54
2022-11-15T22:47:37.208Z,79.00
2022-11-15T22:52:41.430Z,78.77
2022-11-15T22:57:44.397Z,78.85
2022-11-15T23:02:51.795Z,78.38
2022-11-15T23:07:57.573Z,78.08
2022-11-15T23:13:19.484Z,78.34
2022-11-15T23:18:22.344Z,78.32
2022-11-15T23:23:26.649Z,78.54
2022-11-15T23:28:29.624Z,78.85
2022-11-15T23:33:50.113Z,79.03
2022-11-15T23:38:54.603Z,78.82
2022-11-15T23:43:57.446Z,78.49
2022-11-15T23:49:00.691Z,78.48
2022-11-15T23:54:05.069Z,78.39
2022-11-15T23:59:08.466Z,78.62
